Lattasburg, Ohio
Current Conditions -  °F | °C
As of 12:56 PM on Thursday 29 Jan 2015 (Local Time) from KBJJ Reporting Station
Overcast Overcast  
Wind Chill: 25°   Ceiling: 3600
Heat Index: 34°   Visibility: 10mi
Dew Point: 30°   Wind: 13mph
Humidity: 85%   Direction: 200°SSW
Pressure: 29.77"   Gusts: NA
Location:  40.9441°N, 82.1006°W
Report Text: KBJJ 291756Z AUTO 20011KT 10SM OVC036 01/M01 A2977 RMK AO2 SLP094 P0002 60009 I1000 I6011 T00111011 10011 21022 58019 TSNO
Loading
Personal Weather Stations






























Interactive Weather Map New forecast layout! Learn more

10-Day Weather Forecast

Advertisements
Track Severe Weather on mobile